sensor_id;sensor_type;location;lat;lon;timestamp;temperature;humidity
20045;DHT22;10183;47.808;9.476;2023-07-20T00:01:02;17.00;99.90
20045;DHT22;10183;47.808;9.476;2023-07-20T00:03:48;17.00;99.90
20045;DHT22;10183;47.808;9.476;2023-07-20T00:06:40;17.00;99.90
20045;DHT22;10183;47.808;9.476;2023-07-20T00:09:26;17.00;99.90
20045;DHT22;10183;47.808;9.476;2023-07-20T00:12:13;17.20;99.90
20045;DHT22;10183;47.808;9.476;2023-07-20T00:14:59;17.20;99.90
20045;DHT22;10183;47.808;9.476;2023-07-20T00:17:45;17.30;99.90
20045;DHT22;10183;47.808;9.476;2023-07-20T00:20:31;17.30;99.90
20045;DHT22;10183;47.808;9.476;2023-07-20T00:23:17;17.40;99.90
20045;DHT22;10183;47.808;9.476;2023-07-20T00:26:02;17.40;99.90
20045;DHT22;10183;47.808;9.476;2023-07-20T00:28:50;17.40;99.90
20045;DHT22;10183;47.808;9.476;2023-07-20T00:31:37;17.60;99.90
20045;DHT22;10183;47.808;9.476;2023-07-20T00:34:23;17.60;99.90
20045;DHT22;10183;47.808;9.476;2023-07-20T00:37:09;17.70;99.90
20045;DHT22;10183;47.808;9.476;2023-07-20T00:39:55;17.90;99.90
20045;DHT22;10183;47.808;9.476;2023-07-20T00:42:41;17.70;99.90
20045;DHT22;10183;47.808;9.476;2023-07-20T00:45:27;17.50;99.90
20045;DHT22;10183;47.808;9.476;2023-07-20T00:48:13;17.20;99.90
20045;DHT22;10183;47.808;9.476;2023-07-20T00:51:00;17.20;99.90
20045;DHT22;10183;47.808;9.476;2023-07-20T00:53:47;17.20;99.90
20045;DHT22;10183;47.808;9.476;2023-07-20T00:56:33;17.30;99.90
20045;DHT22;10183;47.808;9.476;2023-07-20T00:59:20;17.30;99.90
20045;DHT22;10183;47.808;9.476;2023-07-20T01:02:06;17.30;99.90
20045;DHT22;10183;47.808;9.476;2023-07-20T01:04:52;17.30;99.90
20045;DHT22;10183;47.808;9.476;2023-07-20T01:08:01;17.30;99.90
20045;DHT22;10183;47.808;9.476;2023-07-20T01:11:09;17.40;99.90
20045;DHT22;10183;47.808;9.476;2023-07-20T01:13:56;17.40;99.90
20045;DHT22;10183;47.808;9.476;2023-07-20T01:16:43;17.50;99.90
20045;DHT22;10183;47.808;9.476;2023-07-20T01:19:30;17.50;99.90
20045;DHT22;10183;47.808;9.476;2023-07-20T01:31:37;17.50;99.90
20045;DHT22;10183;47.808;9.476;2023-07-20T01:34:24;17.60;99.90
20045;DHT22;10183;47.808;9.476;2023-07-20T01:37:11;17.70;99.90
20045;DHT22;10183;47.808;9.476;2023-07-20T01:39:58;17.70;99.90
20045;DHT22;10183;47.808;9.476;2023-07-20T01:42:48;17.90;99.90
20045;DHT22;10183;47.808;9.476;2023-07-20T01:45:34;18.00;99.90
20045;DHT22;10183;47.808;9.476;2023-07-20T01:48:20;18.00;99.90
20045;DHT22;10183;47.808;9.476;2023-07-20T01:51:06;18.00;99.90
20045;DHT22;10183;47.808;9.476;2023-07-20T01:53:52;18.00;99.90
20045;DHT22;10183;47.808;9.476;2023-07-20T01:56:38;17.90;99.90
20045;DHT22;10183;47.808;9.476;2023-07-20T01:59:23;17.90;99.90
20045;DHT22;10183;47.808;9.476;2023-07-20T02:02:09;17.90;99.90
20045;DHT22;10183;47.808;9.476;2023-07-20T02:04:55;17.90;99.90
20045;DHT22;10183;47.808;9.476;2023-07-20T02:07:42;18.00;99.90
20045;DHT22;10183;47.808;9.476;2023-07-20T02:10:28;17.90;99.90
20045;DHT22;10183;47.808;9.476;2023-07-20T02:13:14;17.90;99.90
20045;DHT22;10183;47.808;9.476;2023-07-20T02:16:00;17.90;99.90
20045;DHT22;10183;47.808;9.476;2023-07-20T02:18:46;17.80;99.90
20045;DHT22;10183;47.808;9.476;2023-07-20T02:21:32;17.80;99.90
20045;DHT22;10183;47.808;9.476;2023-07-20T02:24:18;17.70;99.90
20045;DHT22;10183;47.808;9.476;2023-07-20T02:27:04;17.60;99.90
20045;DHT22;10183;47.808;9.476;2023-07-20T02:29:51;17.60;99.90
20045;DHT22;10183;47.808;9.476;2023-07-20T02:32:37;17.50;99.90
20045;DHT22;10183;47.808;9.476;2023-07-20T02:35:23;17.40;99.90
20045;DHT22;10183;47.808;9.476;2023-07-20T02:38:09;17.30;99.90
20045;DHT22;10183;47.808;9.476;2023-07-20T02:40:54;17.40;99.90
20045;DHT22;10183;47.808;9.476;2023-07-20T02:43:40;17.40;99.90
20045;DHT22;10183;47.808;9.476;2023-07-20T02:46:26;17.30;99.90
20045;DHT22;10183;47.808;9.476;2023-07-20T02:49:12;17.20;99.90
20045;DHT22;10183;47.808;9.476;2023-07-20T02:51:58;17.10;99.90
20045;DHT22;10183;47.808;9.476;2023-07-20T02:54:44;17.10;99.90
20045;DHT22;10183;47.808;9.476;2023-07-20T02:57:31;17.00;99.90
20045;DHT22;10183;47.808;9.476;2023-07-20T03:00:17;17.10;99.90
20045;DHT22;10183;47.808;9.476;2023-07-20T03:03:05;17.10;99.90
20045;DHT22;10183;47.808;9.476;2023-07-20T03:05:55;17.10;99.90
20045;DHT22;10183;47.808;9.476;2023-07-20T03:08:43;17.00;99.90
20045;DHT22;10183;47.808;9.476;2023-07-20T03:11:32;16.90;99.90
20045;DHT22;10183;47.808;9.476;2023-07-20T03:14:18;16.80;99.90
20045;DHT22;10183;47.808;9.476;2023-07-20T03:17:04;16.70;99.90
20045;DHT22;10183;47.808;9.476;2023-07-20T03:19:50;16.50;99.90
20045;DHT22;10183;47.808;9.476;2023-07-20T03:22:36;16.60;99.90
20045;DHT22;10183;47.808;9.476;2023-07-20T03:25:22;16.50;99.90
20045;DHT22;10183;47.808;9.476;2023-07-20T03:28:08;16.40;99.90
20045;DHT22;10183;47.808;9.476;2023-07-20T03:30:57;16.40;99.90
20045;DHT22;10183;47.808;9.476;2023-07-20T03:33:43;16.50;99.90
20045;DHT22;10183;47.808;9.476;2023-07-20T03:36:29;16.40;99.90
20045;DHT22;10183;47.808;9.476;2023-07-20T03:39:17;16.30;99.90
20045;DHT22;10183;47.808;9.476;2023-07-20T03:42:03;16.30;99.90
20045;DHT22;10183;47.808;9.476;2023-07-20T03:44:49;16.30;99.90
20045;DHT22;10183;47.808;9.476;2023-07-20T03:47:36;16.30;99.90
20045;DHT22;10183;47.808;9.476;2023-07-20T03:50:22;16.30;99.90
20045;DHT22;10183;47.808;9.476;2023-07-20T03:53:08;16.30;99.90
20045;DHT22;10183;47.808;9.476;2023-07-20T03:55:54;16.30;99.90
20045;DHT22;10183;47.808;9.476;2023-07-20T03:58:40;16.20;99.90
20045;DHT22;10183;47.808;9.476;2023-07-20T04:01:26;16.20;99.90
20045;DHT22;10183;47.808;9.476;2023-07-20T04:04:15;16.10;99.90
20045;DHT22;10183;47.808;9.476;2023-07-20T04:07:01;16.10;99.90
20045;DHT22;10183;47.808;9.476;2023-07-20T04:09:47;16.00;99.90
20045;DHT22;10183;47.808;9.476;2023-07-20T04:12:33;16.10;99.90
20045;DHT22;10183;47.808;9.476;2023-07-20T04:15:19;16.10;99.90
20045;DHT22;10183;47.808;9.476;2023-07-20T04:18:05;16.20;99.90
20045;DHT22;10183;47.808;9.476;2023-07-20T04:20:51;16.30;99.90
20045;DHT22;10183;47.808;9.476;2023-07-20T04:23:37;16.40;99.90
20045;DHT22;10183;47.808;9.476;2023-07-20T04:26:23;16.40;99.90
20045;DHT22;10183;47.808;9.476;2023-07-20T04:29:09;16.50;99.90
20045;DHT22;10183;47.808;9.476;2023-07-20T04:31:55;16.40;99.90
20045;DHT22;10183;47.808;9.476;2023-07-20T04:34:42;16.50;99.90
20045;DHT22;10183;47.808;9.476;2023-07-20T04:37:28;16.60;99.90
20045;DHT22;10183;47.808;9.476;2023-07-20T04:40:15;16.60;99.90
20045;DHT22;10183;47.808;9.476;2023-07-20T04:43:01;16.70;99.90
20045;DHT22;10183;47.808;9.476;2023-07-20T04:45:47;16.60;99.90
20045;DHT22;10183;47.808;9.476;2023-07-20T04:48:33;16.60;99.90
20045;DHT22;10183;47.808;9.476;2023-07-20T04:51:19;16.70;99.90
20045;DHT22;10183;47.808;9.476;2023-07-20T04:54:06;16.80;99.90
20045;DHT22;10183;47.808;9.476;2023-07-20T04:56:53;16.90;99.90
20045;DHT22;10183;47.808;9.476;2023-07-20T04:59:39;16.90;99.90
20045;DHT22;10183;47.808;9.476;2023-07-20T05:02:25;16.90;99.90
20045;DHT22;10183;47.808;9.476;2023-07-20T05:05:11;16.90;99.90
20045;DHT22;10183;47.808;9.476;2023-07-20T05:07:57;17.00;99.90
20045;DHT22;10183;47.808;9.476;2023-07-20T05:10:43;17.00;99.90
20045;DHT22;10183;47.808;9.476;2023-07-20T05:13:29;17.10;99.90
20045;DHT22;10183;47.808;9.476;2023-07-20T05:16:15;17.10;99.90
20045;DHT22;10183;47.808;9.476;2023-07-20T05:19:01;17.00;99.90
20045;DHT22;10183;47.808;9.476;2023-07-20T05:21:47;17.00;99.90
20045;DHT22;10183;47.808;9.476;2023-07-20T05:24:33;17.10;99.90
20045;DHT22;10183;47.808;9.476;2023-07-20T05:27:19;17.00;99.90
20045;DHT22;10183;47.808;9.476;2023-07-20T05:30:06;17.00;99.90
20045;DHT22;10183;47.808;9.476;2023-07-20T05:32:52;17.10;99.90
20045;DHT22;10183;47.808;9.476;2023-07-20T05:35:40;17.10;99.90
20045;DHT22;10183;47.808;9.476;2023-07-20T05:38:26;17.20;99.90
20045;DHT22;10183;47.808;9.476;2023-07-20T05:41:12;17.30;99.90
20045;DHT22;10183;47.808;9.476;2023-07-20T05:43:58;17.60;99.90
20045;DHT22;10183;47.808;9.476;2023-07-20T05:46:44;17.60;99.90
20045;DHT22;10183;47.808;9.476;2023-07-20T05:49:29;17.40;99.90
20045;DHT22;10183;47.808;9.476;2023-07-20T05:52:15;17.60;99.90
20045;DHT22;10183;47.808;9.476;2023-07-20T05:55:02;17.70;99.90
20045;DHT22;10183;47.808;9.476;2023-07-20T05:57:49;17.60;99.90
20045;DHT22;10183;47.808;9.476;2023-07-20T06:00:35;17.50;99.90
20045;DHT22;10183;47.808;9.476;2023-07-20T06:03:21;17.40;99.90
20045;DHT22;10183;47.808;9.476;2023-07-20T06:06:07;17.50;99.90
20045;DHT22;10183;47.808;9.476;2023-07-20T06:08:55;17.60;99.90
20045;DHT22;10183;47.808;9.476;2023-07-20T06:11:40;17.80;99.90
20045;DHT22;10183;47.808;9.476;2023-07-20T06:14:26;17.90;99.90
20045;DHT22;10183;47.808;9.476;2023-07-20T06:17:13;18.00;99.90
20045;DHT22;10183;47.808;9.476;2023-07-20T06:19:59;17.80;99.90
20045;DHT22;10183;47.808;9.476;2023-07-20T06:22:45;17.80;99.90
20045;DHT22;10183;47.808;9.476;2023-07-20T06:25:31;17.70;99.90
20045;DHT22;10183;47.808;9.476;2023-07-20T06:28:17;17.70;99.90
20045;DHT22;10183;47.808;9.476;2023-07-20T06:31:04;18.20;99.90
20045;DHT22;10183;47.808;9.476;2023-07-20T06:33:49;18.50;99.90
20045;DHT22;10183;47.808;9.476;2023-07-20T06:36:35;18.70;99.90
20045;DHT22;10183;47.808;9.476;2023-07-20T06:39:22;18.90;99.90
20045;DHT22;10183;47.808;9.476;2023-07-20T06:42:08;19.20;99.90
20045;DHT22;10183;47.808;9.476;2023-07-20T06:44:54;19.40;99.90
20045;DHT22;10183;47.808;9.476;2023-07-20T06:47:40;19.20;99.90
20045;DHT22;10183;47.808;9.476;2023-07-20T06:50:26;18.70;99.90
20045;DHT22;10183;47.808;9.476;2023-07-20T06:53:13;18.30;99.90
20045;DHT22;10183;47.808;9.476;2023-07-20T06:55:59;18.60;99.90
20045;DHT22;10183;47.808;9.476;2023-07-20T06:58:45;18.50;99.90
20045;DHT22;10183;47.808;9.476;2023-07-20T07:01:31;19.00;99.90
20045;DHT22;10183;47.808;9.476;2023-07-20T07:04:17;19.20;99.90
20045;DHT22;10183;47.808;9.476;2023-07-20T07:07:03;19.60;99.90
20045;DHT22;10183;47.808;9.476;2023-07-20T07:09:49;19.40;99.90
20045;DHT22;10183;47.808;9.476;2023-07-20T07:12:35;19.40;99.90
20045;DHT22;10183;47.808;9.476;2023-07-20T07:15:21;19.60;99.90
20045;DHT22;10183;47.808;9.476;2023-07-20T07:18:07;19.70;99.90
20045;DHT22;10183;47.808;9.476;2023-07-20T07:20:53;20.10;99.90
20045;DHT22;10183;47.808;9.476;2023-07-20T07:23:39;20.30;99.90
20045;DHT22;10183;47.808;9.476;2023-07-20T07:26:25;20.00;99.90
20045;DHT22;10183;47.808;9.476;2023-07-20T07:29:11;20.00;99.90
20045;DHT22;10183;47.808;9.476;2023-07-20T07:31:57;20.10;99.90
20045;DHT22;10183;47.808;9.476;2023-07-20T07:34:44;20.40;99.90
20045;DHT22;10183;47.808;9.476;2023-07-20T07:37:32;20.30;99.90
20045;DHT22;10183;47.808;9.476;2023-07-20T07:40:18;19.60;99.90
20045;DHT22;10183;47.808;9.476;2023-07-20T07:43:04;19.70;99.90
20045;DHT22;10183;47.808;9.476;2023-07-20T07:45:50;19.80;99.90
20045;DHT22;10183;47.808;9.476;2023-07-20T07:48:36;20.10;99.90
20045;DHT22;10183;47.808;9.476;2023-07-20T07:51:22;20.10;99.90
20045;DHT22;10183;47.808;9.476;2023-07-20T07:54:08;20.10;99.90
20045;DHT22;10183;47.808;9.476;2023-07-20T07:56:54;20.30;99.90
20045;DHT22;10183;47.808;9.476;2023-07-20T07:59:39;20.50;99.90
20045;DHT22;10183;47.808;9.476;2023-07-20T08:02:25;19.70;99.90
20045;DHT22;10183;47.808;9.476;2023-07-20T08:05:12;20.10;99.90
20045;DHT22;10183;47.808;9.476;2023-07-20T08:07:58;20.60;99.90
20045;DHT22;10183;47.808;9.476;2023-07-20T08:10:44;21.30;99.90
20045;DHT22;10183;47.808;9.476;2023-07-20T08:13:30;21.60;99.90
20045;DHT22;10183;47.808;9.476;2023-07-20T08:16:17;21.30;99.90
20045;DHT22;10183;47.808;9.476;2023-07-20T08:19:03;20.70;99.90
20045;DHT22;10183;47.808;9.476;2023-07-20T08:21:49;21.00;99.90
20045;DHT22;10183;47.808;9.476;2023-07-20T08:24:38;21.60;99.90
20045;DHT22;10183;47.808;9.476;2023-07-20T08:27:25;22.00;99.90
20045;DHT22;10183;47.808;9.476;2023-07-20T08:30:11;21.30;99.90
20045;DHT22;10183;47.808;9.476;2023-07-20T08:32:57;21.40;99.90
20045;DHT22;10183;47.808;9.476;2023-07-20T08:35:43;21.00;99.90
20045;DHT22;10183;47.808;9.476;2023-07-20T08:38:29;21.00;99.90
20045;DHT22;10183;47.808;9.476;2023-07-20T08:41:15;21.10;99.90
20045;DHT22;10183;47.808;9.476;2023-07-20T08:44:02;20.60;99.90
20045;DHT22;10183;47.808;9.476;2023-07-20T08:46:49;20.40;99.90
20045;DHT22;10183;47.808;9.476;2023-07-20T08:49:35;20.80;99.90
20045;DHT22;10183;47.808;9.476;2023-07-20T08:52:21;20.90;99.90
20045;DHT22;10183;47.808;9.476;2023-07-20T08:55:07;21.00;99.90
20045;DHT22;10183;47.808;9.476;2023-07-20T08:57:58;20.80;99.90
20045;DHT22;10183;47.808;9.476;2023-07-20T09:00:44;21.20;99.90
20045;DHT22;10183;47.808;9.476;2023-07-20T09:03:30;20.90;99.90
20045;DHT22;10183;47.808;9.476;2023-07-20T09:06:17;20.70;99.90
20045;DHT22;10183;47.808;9.476;2023-07-20T09:09:04;20.70;99.90
20045;DHT22;10183;47.808;9.476;2023-07-20T09:11:50;20.30;99.90
20045;DHT22;10183;47.808;9.476;2023-07-20T09:14:37;20.20;99.90
20045;DHT22;10183;47.808;9.476;2023-07-20T09:17:25;21.20;99.90
20045;DHT22;10183;47.808;9.476;2023-07-20T09:20:11;21.70;99.90
20045;DHT22;10183;47.808;9.476;2023-07-20T09:22:57;21.70;99.90
20045;DHT22;10183;47.808;9.476;2023-07-20T09:25:43;21.30;99.90
20045;DHT22;10183;47.808;9.476;2023-07-20T09:28:41;21.50;99.90
20045;DHT22;10183;47.808;9.476;2023-07-20T09:31:28;21.60;99.90
20045;DHT22;10183;47.808;9.476;2023-07-20T09:34:14;22.40;99.90
20045;DHT22;10183;47.808;9.476;2023-07-20T09:37:00;23.00;99.90
20045;DHT22;10183;47.808;9.476;2023-07-20T09:39:46;23.40;99.90
20045;DHT22;10183;47.808;9.476;2023-07-20T09:42:32;22.90;99.90
20045;DHT22;10183;47.808;9.476;2023-07-20T09:45:19;22.50;99.90
20045;DHT22;10183;47.808;9.476;2023-07-20T09:48:09;23.20;99.90
20045;DHT22;10183;47.808;9.476;2023-07-20T09:50:56;23.20;99.90
20045;DHT22;10183;47.808;9.476;2023-07-20T09:53:42;22.20;99.90
20045;DHT22;10183;47.808;9.476;2023-07-20T09:56:29;21.40;99.90
20045;DHT22;10183;47.808;9.476;2023-07-20T09:59:16;21.60;99.90
20045;DHT22;10183;47.808;9.476;2023-07-20T10:02:14;21.20;99.90
20045;DHT22;10183;47.808;9.476;2023-07-20T10:05:04;21.90;99.90
20045;DHT22;10183;47.808;9.476;2023-07-20T10:07:50;22.60;99.90
20045;DHT22;10183;47.808;9.476;2023-07-20T10:10:41;23.50;99.90
20045;DHT22;10183;47.808;9.476;2023-07-20T10:13:29;24.20;99.90
20045;DHT22;10183;47.808;9.476;2023-07-20T10:16:22;25.00;99.90
20045;DHT22;10183;47.808;9.476;2023-07-20T10:19:33;23.90;99.90
20045;DHT22;10183;47.808;9.476;2023-07-20T10:22:26;24.00;99.90
20045;DHT22;10183;47.808;9.476;2023-07-20T10:25:13;24.80;99.90
20045;DHT22;10183;47.808;9.476;2023-07-20T10:28:00;25.20;99.90
20045;DHT22;10183;47.808;9.476;2023-07-20T10:30:46;25.30;99.90
20045;DHT22;10183;47.808;9.476;2023-07-20T10:33:32;26.00;99.90
20045;DHT22;10183;47.808;9.476;2023-07-20T10:36:25;25.00;86.70
20045;DHT22;10183;47.808;9.476;2023-07-20T10:39:25;24.00;99.90
20045;DHT22;10183;47.808;9.476;2023-07-20T10:42:13;24.30;99.90
20045;DHT22;10183;47.808;9.476;2023-07-20T10:45:01;24.00;99.90
20045;DHT22;10183;47.808;9.476;2023-07-20T10:47:47;23.40;99.90
20045;DHT22;10183;47.808;9.476;2023-07-20T10:50:33;23.80;99.90
20045;DHT22;10183;47.808;9.476;2023-07-20T10:53:22;23.90;99.90
20045;DHT22;10183;47.808;9.476;2023-07-20T10:56:12;23.70;99.90
20045;DHT22;10183;47.808;9.476;2023-07-20T10:59:20;23.60;99.90
20045;DHT22;10183;47.808;9.476;2023-07-20T11:02:21;23.40;99.90
20045;DHT22;10183;47.808;9.476;2023-07-20T11:05:37;23.80;99.90
20045;DHT22;10183;47.808;9.476;2023-07-20T11:08:39;25.60;99.90
20045;DHT22;10183;47.808;9.476;2023-07-20T11:11:30;25.00;99.90
20045;DHT22;10183;47.808;9.476;2023-07-20T11:14:23;24.40;99.90
20045;DHT22;10183;47.808;9.476;2023-07-20T11:17:14;24.40;99.90
20045;DHT22;10183;47.808;9.476;2023-07-20T11:20:02;23.80;99.90
20045;DHT22;10183;47.808;9.476;2023-07-20T11:22:49;24.50;99.90
20045;DHT22;10183;47.808;9.476;2023-07-20T11:25:40;24.90;99.90
20045;DHT22;10183;47.808;9.476;2023-07-20T11:28:30;24.40;99.90
20045;DHT22;10183;47.808;9.476;2023-07-20T11:31:16;24.00;99.90
20045;DHT22;10183;47.808;9.476;2023-07-20T11:34:02;24.80;99.90
20045;DHT22;10183;47.808;9.476;2023-07-20T11:36:49;25.40;99.90
20045;DHT22;10183;47.808;9.476;2023-07-20T11:39:35;25.10;94.30
20045;DHT22;10183;47.808;9.476;2023-07-20T11:42:22;24.40;96.90
20045;DHT22;10183;47.808;9.476;2023-07-20T11:45:09;23.80;95.60
20045;DHT22;10183;47.808;9.476;2023-07-20T11:47:58;23.30;99.90
20045;DHT22;10183;47.808;9.476;2023-07-20T11:50:44;23.40;99.90
20045;DHT22;10183;47.808;9.476;2023-07-20T11:53:30;22.60;99.90
20045;DHT22;10183;47.808;9.476;2023-07-20T11:56:18;23.40;99.90
20045;DHT22;10183;47.808;9.476;2023-07-20T11:59:06;24.40;99.90
20045;DHT22;10183;47.808;9.476;2023-07-20T12:01:52;25.70;91.20
20045;DHT22;10183;47.808;9.476;2023-07-20T12:04:38;25.40;88.60
20045;DHT22;10183;47.808;9.476;2023-07-20T12:07:27;25.20;99.90
20045;DHT22;10183;47.808;9.476;2023-07-20T12:10:13;25.80;95.70
20045;DHT22;10183;47.808;9.476;2023-07-20T12:13:03;25.40;87.60
20045;DHT22;10183;47.808;9.476;2023-07-20T12:15:53;25.90;99.90
20045;DHT22;10183;47.808;9.476;2023-07-20T12:18:44;26.00;99.10
20045;DHT22;10183;47.808;9.476;2023-07-20T12:21:31;26.70;91.10
20045;DHT22;10183;47.808;9.476;2023-07-20T12:24:18;27.40;99.90
20045;DHT22;10183;47.808;9.476;2023-07-20T12:27:04;27.50;79.70
20045;DHT22;10183;47.808;9.476;2023-07-20T12:29:50;27.80;60.60
20045;DHT22;10183;47.808;9.476;2023-07-20T12:32:36;27.00;51.90
20045;DHT22;10183;47.808;9.476;2023-07-20T12:35:22;27.70;64.10
20045;DHT22;10183;47.808;9.476;2023-07-20T12:38:08;25.20;48.80
20045;DHT22;10183;47.808;9.476;2023-07-20T12:40:54;25.40;50.60
20045;DHT22;10183;47.808;9.476;2023-07-20T12:43:44;25.20;67.20
20045;DHT22;10183;47.808;9.476;2023-07-20T12:46:30;25.60;99.90
20045;DHT22;10183;47.808;9.476;2023-07-20T12:49:20;25.70;57.10
20045;DHT22;10183;47.808;9.476;2023-07-20T12:52:07;26.40;80.20
20045;DHT22;10183;47.808;9.476;2023-07-20T12:54:53;26.70;74.30
20045;DHT22;10183;47.808;9.476;2023-07-20T12:57:40;27.60;65.60
20045;DHT22;10183;47.808;9.476;2023-07-20T13:00:27;27.90;51.10
20045;DHT22;10183;47.808;9.476;2023-07-20T13:03:12;29.50;34.00
20045;DHT22;10183;47.808;9.476;2023-07-20T13:05:59;28.60;17.70
20045;DHT22;10183;47.808;9.476;2023-07-20T13:08:45;27.60;52.70
20045;DHT22;10183;47.808;9.476;2023-07-20T13:11:31;26.60;30.20
20045;DHT22;10183;47.808;9.476;2023-07-20T13:14:17;28.00;35.40
20045;DHT22;10183;47.808;9.476;2023-07-20T13:17:04;27.90;51.30
20045;DHT22;10183;47.808;9.476;2023-07-20T13:19:49;28.10;39.50
20045;DHT22;10183;47.808;9.476;2023-07-20T13:22:37;28.80;15.20
20045;DHT22;10183;47.808;9.476;2023-07-20T13:25:23;26.70;25.90
20045;DHT22;10183;47.808;9.476;2023-07-20T13:28:09;25.70;41.70
20045;DHT22;10183;47.808;9.476;2023-07-20T13:30:55;24.90;44.50
20045;DHT22;10183;47.808;9.476;2023-07-20T13:33:41;24.50;78.50
20045;DHT22;10183;47.808;9.476;2023-07-20T13:36:27;25.30;50.70
20045;DHT22;10183;47.808;9.476;2023-07-20T13:39:12;26.80;36.40
20045;DHT22;10183;47.808;9.476;2023-07-20T13:41:58;27.20;24.30
20045;DHT22;10183;47.808;9.476;2023-07-20T13:44:48;27.50;22.30
20045;DHT22;10183;47.808;9.476;2023-07-20T13:47:34;27.30;25.50
20045;DHT22;10183;47.808;9.476;2023-07-20T13:50:20;28.00;19.50
20045;DHT22;10183;47.808;9.476;2023-07-20T13:53:07;30.50;20.30
20045;DHT22;10183;47.808;9.476;2023-07-20T13:55:53;32.30;4.50
20045;DHT22;10183;47.808;9.476;2023-07-20T13:58:39;32.90;2.10
20045;DHT22;10183;47.808;9.476;2023-07-20T14:01:25;30.70;1.00
20045;DHT22;10183;47.808;9.476;2023-07-20T14:04:13;27.70;8.00
20045;DHT22;10183;47.808;9.476;2023-07-20T14:06:59;28.00;11.00
20045;DHT22;10183;47.808;9.476;2023-07-20T14:09:45;29.10;10.60
20045;DHT22;10183;47.808;9.476;2023-07-20T14:12:31;30.40;8.80
20045;DHT22;10183;47.808;9.476;2023-07-20T14:15:18;32.60;7.60
20045;DHT22;10183;47.808;9.476;2023-07-20T14:18:05;33.90;1.00
20045;DHT22;10183;47.808;9.476;2023-07-20T14:20:51;34.60;1.00
20045;DHT22;10183;47.808;9.476;2023-07-20T14:23:37;36.20;1.00
20045;DHT22;10183;47.808;9.476;2023-07-20T14:26:23;37.20;1.00
20045;DHT22;10183;47.808;9.476;2023-07-20T14:29:09;36.40;1.00
20045;DHT22;10183;47.808;9.476;2023-07-20T14:31:56;33.20;1.00
20045;DHT22;10183;47.808;9.476;2023-07-20T14:34:42;30.30;1.00
20045;DHT22;10183;47.808;9.476;2023-07-20T14:37:28;29.40;1.00
20045;DHT22;10183;47.808;9.476;2023-07-20T14:40:14;29.40;7.00
20045;DHT22;10183;47.808;9.476;2023-07-20T14:43:00;30.60;3.50
20045;DHT22;10183;47.808;9.476;2023-07-20T14:45:46;30.80;1.80
20045;DHT22;10183;47.808;9.476;2023-07-20T14:48:33;33.70;1.00
20045;DHT22;10183;47.808;9.476;2023-07-20T14:51:19;35.30;1.00
20045;DHT22;10183;47.808;9.476;2023-07-20T14:54:06;34.30;1.00
20045;DHT22;10183;47.808;9.476;2023-07-20T14:56:52;32.60;1.00
20045;DHT22;10183;47.808;9.476;2023-07-20T14:59:38;30.20;1.00
20045;DHT22;10183;47.808;9.476;2023-07-20T15:02:24;31.50;1.00
20045;DHT22;10183;47.808;9.476;2023-07-20T15:05:10;28.50;1.00
20045;DHT22;10183;47.808;9.476;2023-07-20T15:07:56;28.00;6.50
20045;DHT22;10183;47.808;9.476;2023-07-20T15:10:43;27.60;6.90
20045;DHT22;10183;47.808;9.476;2023-07-20T15:13:32;28.70;10.90
20045;DHT22;10183;47.808;9.476;2023-07-20T15:16:18;29.70;3.60
20045;DHT22;10183;47.808;9.476;2023-07-20T15:19:04;30.80;1.00
20045;DHT22;10183;47.808;9.476;2023-07-20T15:21:50;32.40;2.80
20045;DHT22;10183;47.808;9.476;2023-07-20T15:24:36;34.70;1.00
20045;DHT22;10183;47.808;9.476;2023-07-20T15:27:22;36.80;1.00
20045;DHT22;10183;47.808;9.476;2023-07-20T15:30:09;37.10;1.00
20045;DHT22;10183;47.808;9.476;2023-07-20T15:32:55;33.90;1.00
20045;DHT22;10183;47.808;9.476;2023-07-20T15:35:44;30.30;1.00
20045;DHT22;10183;47.808;9.476;2023-07-20T15:38:30;28.70;1.00
20045;DHT22;10183;47.808;9.476;2023-07-20T15:41:17;30.30;1.00
20045;DHT22;10183;47.808;9.476;2023-07-20T15:44:03;30.50;1.00
20045;DHT22;10183;47.808;9.476;2023-07-20T15:46:50;30.50;1.00
20045;DHT22;10183;47.808;9.476;2023-07-20T15:49:36;29.90;1.00
20045;DHT22;10183;47.808;9.476;2023-07-20T15:52:23;30.40;1.00
20045;DHT22;10183;47.808;9.476;2023-07-20T15:55:10;30.30;3.00
20045;DHT22;10183;47.808;9.476;2023-07-20T15:57:56;32.20;1.00
20045;DHT22;10183;47.808;9.476;2023-07-20T16:00:42;30.90;1.00
20045;DHT22;10183;47.808;9.476;2023-07-20T16:03:29;31.90;1.00
20045;DHT22;10183;47.808;9.476;2023-07-20T16:06:15;34.90;1.00
20045;DHT22;10183;47.808;9.476;2023-07-20T16:09:04;36.10;1.00
20045;DHT22;10183;47.808;9.476;2023-07-20T16:11:50;36.90;1.00
20045;DHT22;10183;47.808;9.476;2023-07-20T16:14:36;36.60;1.00
20045;DHT22;10183;47.808;9.476;2023-07-20T16:17:22;36.70;1.00
20045;DHT22;10183;47.808;9.476;2023-07-20T16:20:09;36.00;1.00
20045;DHT22;10183;47.808;9.476;2023-07-20T16:22:55;37.30;1.00
20045;DHT22;10183;47.808;9.476;2023-07-20T16:25:45;37.20;1.00
20045;DHT22;10183;47.808;9.476;2023-07-20T16:28:32;37.10;1.00
20045;DHT22;10183;47.808;9.476;2023-07-20T16:31:18;35.00;1.00
20045;DHT22;10183;47.808;9.476;2023-07-20T16:34:04;33.80;1.00
20045;DHT22;10183;47.808;9.476;2023-07-20T16:36:50;34.90;1.00
20045;DHT22;10183;47.808;9.476;2023-07-20T16:39:36;34.30;1.00
20045;DHT22;10183;47.808;9.476;2023-07-20T16:42:26;33.40;1.00
20045;DHT22;10183;47.808;9.476;2023-07-20T16:45:13;30.70;1.00
20045;DHT22;10183;47.808;9.476;2023-07-20T16:47:59;29.20;1.00
20045;DHT22;10183;47.808;9.476;2023-07-20T16:50:45;29.70;1.00
20045;DHT22;10183;47.808;9.476;2023-07-20T16:53:31;28.60;1.00
20045;DHT22;10183;47.808;9.476;2023-07-20T16:56:17;28.90;4.30
20045;DHT22;10183;47.808;9.476;2023-07-20T16:59:03;29.00;4.40
20045;DHT22;10183;47.808;9.476;2023-07-20T17:01:49;31.10;5.10
20045;DHT22;10183;47.808;9.476;2023-07-20T17:04:37;31.90;1.00
20045;DHT22;10183;47.808;9.476;2023-07-20T17:07:23;29.40;1.00
20045;DHT22;10183;47.808;9.476;2023-07-20T17:10:11;29.90;1.00
20045;DHT22;10183;47.808;9.476;2023-07-20T17:12:57;31.10;1.00
20045;DHT22;10183;47.808;9.476;2023-07-20T17:15:48;31.60;1.00
20045;DHT22;10183;47.808;9.476;2023-07-20T17:18:34;31.00;1.00
20045;DHT22;10183;47.808;9.476;2023-07-20T17:21:20;30.50;1.50
20045;DHT22;10183;47.808;9.476;2023-07-20T17:24:07;30.10;3.70
20045;DHT22;10183;47.808;9.476;2023-07-20T17:26:53;29.30;6.40
20045;DHT22;10183;47.808;9.476;2023-07-20T17:29:38;28.70;7.10
20045;DHT22;10183;47.808;9.476;2023-07-20T17:32:25;28.20;13.80
20045;DHT22;10183;47.808;9.476;2023-07-20T17:35:11;27.70;27.80
20045;DHT22;10183;47.808;9.476;2023-07-20T17:37:58;27.40;25.90
20045;DHT22;10183;47.808;9.476;2023-07-20T17:40:44;27.10;41.10
20045;DHT22;10183;47.808;9.476;2023-07-20T17:43:31;26.60;50.40
20045;DHT22;10183;47.808;9.476;2023-07-20T17:46:17;26.00;64.10
20045;DHT22;10183;47.808;9.476;2023-07-20T17:49:03;25.40;84.20